sensor_id;sensor_type;location;lat;lon;timestamp;P1;durP1;ratioP1;P2;durP2;ratioP2
59728;SDS011;45588;51.598;5.618;2023-02-19T00:01:11;55.58;;;32.22;;
59728;SDS011;45588;51.598;5.618;2023-02-19T00:03:37;47.33;;;33.08;;
59728;SDS011;45588;51.598;5.618;2023-02-19T00:06:03;52.80;;;31.55;;
59728;SDS011;45588;51.598;5.618;2023-02-19T00:08:29;47.00;;;30.23;;
59728;SDS011;45588;51.598;5.618;2023-02-19T00:10:58;48.90;;;29.50;;
59728;SDS011;45588;51.598;5.618;2023-02-19T00:13:23;42.38;;;27.73;;
59728;SDS011;45588;51.598;5.618;2023-02-19T00:15:49;51.63;;;30.70;;
59728;SDS011;45588;51.598;5.618;2023-02-19T00:18:14;45.93;;;28.77;;
59728;SDS011;45588;51.598;5.618;2023-02-19T00:20:39;47.00;;;29.30;;
59728;SDS011;45588;51.598;5.618;2023-02-19T00:23:04;44.15;;;28.70;;
59728;SDS011;45588;51.598;5.618;2023-02-19T00:25:29;42.60;;;27.52;;
59728;SDS011;45588;51.598;5.618;2023-02-19T00:27:54;43.50;;;27.40;;
59728;SDS011;45588;51.598;5.618;2023-02-19T00:30:20;30.88;;;14.25;;
59728;SDS011;45588;51.598;5.618;2023-02-19T00:32:48;48.60;;;28.50;;
59728;SDS011;45588;51.598;5.618;2023-02-19T00:35:14;41.15;;;27.83;;
59728;SDS011;45588;51.598;5.618;2023-02-19T00:37:39;31.97;;;15.20;;
59728;SDS011;45588;51.598;5.618;2023-02-19T00:40:04;28.27;;;14.48;;
59728;SDS011;45588;51.598;5.618;2023-02-19T00:42:29;44.70;;;26.55;;
59728;SDS011;45588;51.598;5.618;2023-02-19T00:44:55;41.50;;;24.10;;
59728;SDS011;45588;51.598;5.618;2023-02-19T00:47:20;40.50;;;23.60;;
59728;SDS011;45588;51.598;5.618;2023-02-19T00:49:45;38.07;;;22.60;;
59728;SDS011;45588;51.598;5.618;2023-02-19T00:52:10;36.17;;;22.08;;
59728;SDS011;45588;51.598;5.618;2023-02-19T00:54:35;33.10;;;21.03;;
59728;SDS011;45588;51.598;5.618;2023-02-19T00:57:00;35.27;;;21.63;;
59728;SDS011;45588;51.598;5.618;2023-02-19T00:59:26;39.85;;;20.75;;
59728;SDS011;45588;51.598;5.618;2023-02-19T01:01:51;38.47;;;21.37;;
59728;SDS011;45588;51.598;5.618;2023-02-19T01:04:16;36.33;;;20.08;;
59728;SDS011;45588;51.598;5.618;2023-02-19T01:06:41;36.13;;;20.02;;
59728;SDS011;45588;51.598;5.618;2023-02-19T01:09:09;36.15;;;19.45;;
59728;SDS011;45588;51.598;5.618;2023-02-19T01:11:35;35.53;;;19.63;;
59728;SDS011;45588;51.598;5.618;2023-02-19T01:14:00;38.90;;;19.60;;
59728;SDS011;45588;51.598;5.618;2023-02-19T01:16:25;33.22;;;18.27;;
59728;SDS011;45588;51.598;5.618;2023-02-19T01:18:51;36.28;;;20.13;;
59728;SDS011;45588;51.598;5.618;2023-02-19T01:21:21;24.50;;;10.15;;
59728;SDS011;45588;51.598;5.618;2023-02-19T01:23:47;30.15;;;18.00;;
59728;SDS011;45588;51.598;5.618;2023-02-19T01:26:16;34.08;;;18.15;;
59728;SDS011;45588;51.598;5.618;2023-02-19T01:28:42;34.00;;;17.15;;
59728;SDS011;45588;51.598;5.618;2023-02-19T01:31:09;32.35;;;17.17;;
59728;SDS011;45588;51.598;5.618;2023-02-19T01:33:35;25.33;;;11.07;;
59728;SDS011;45588;51.598;5.618;2023-02-19T01:36:04;20.80;;;8.60;;
59728;SDS011;45588;51.598;5.618;2023-02-19T01:38:30;33.30;;;16.48;;
59728;SDS011;45588;51.598;5.618;2023-02-19T01:40:56;25.42;;;9.13;;
59728;SDS011;45588;51.598;5.618;2023-02-19T01:43:21;31.40;;;14.93;;
59728;SDS011;45588;51.598;5.618;2023-02-19T01:45:46;28.35;;;14.70;;
59728;SDS011;45588;51.598;5.618;2023-02-19T01:48:29;37.03;;;15.55;;
59728;SDS011;45588;51.598;5.618;2023-02-19T01:53:21;32.97;;;14.40;;
59728;SDS011;45588;51.598;5.618;2023-02-19T01:55:48;32.50;;;14.80;;
59728;SDS011;45588;51.598;5.618;2023-02-19T01:58:16;27.35;;;13.68;;
59728;SDS011;45588;51.598;5.618;2023-02-19T02:00:41;34.17;;;14.40;;
59728;SDS011;45588;51.598;5.618;2023-02-19T02:03:06;37.27;;;15.17;;
59728;SDS011;45588;51.598;5.618;2023-02-19T02:05:35;33.35;;;13.27;;
59728;SDS011;45588;51.598;5.618;2023-02-19T02:08:01;23.15;;;6.50;;
59728;SDS011;45588;51.598;5.618;2023-02-19T02:10:45;22.95;;;8.68;;
59728;SDS011;45588;51.598;5.618;2023-02-19T02:13:10;30.23;;;13.73;;
59728;SDS011;45588;51.598;5.618;2023-02-19T02:15:43;36.08;;;14.27;;
59728;SDS011;45588;51.598;5.618;2023-02-19T02:20:48;33.40;;;13.03;;
59728;SDS011;45588;51.598;5.618;2023-02-19T02:28:35;28.98;;;13.57;;
59728;SDS011;45588;51.598;5.618;2023-02-19T02:31:16;42.28;;;15.52;;
59728;SDS011;45588;51.598;5.618;2023-02-19T02:33:45;25.88;;;8.60;;
59728;SDS011;45588;51.598;5.618;2023-02-19T02:36:13;34.67;;;13.38;;
59728;SDS011;45588;51.598;5.618;2023-02-19T02:38:41;35.53;;;15.35;;
59728;SDS011;45588;51.598;5.618;2023-02-19T02:41:06;36.75;;;13.60;;
59728;SDS011;45588;51.598;5.618;2023-02-19T02:43:32;23.67;;;7.45;;
59728;SDS011;45588;51.598;5.618;2023-02-19T02:45:57;35.40;;;14.27;;
59728;SDS011;45588;51.598;5.618;2023-02-19T02:53:37;24.42;;;6.78;;
59728;SDS011;45588;51.598;5.618;2023-02-19T02:56:23;30.88;;;13.55;;
59728;SDS011;45588;51.598;5.618;2023-02-19T02:58:49;31.42;;;12.55;;
59728;SDS011;45588;51.598;5.618;2023-02-19T03:01:17;39.45;;;13.25;;
59728;SDS011;45588;51.598;5.618;2023-02-19T03:04:08;28.58;;;12.90;;
59728;SDS011;45588;51.598;5.618;2023-02-19T03:06:34;25.95;;;7.93;;
59728;SDS011;45588;51.598;5.618;2023-02-19T03:09:12;34.00;;;11.35;;
59728;SDS011;45588;51.598;5.618;2023-02-19T03:11:40;31.65;;;11.93;;
59728;SDS011;45588;51.598;5.618;2023-02-19T03:14:26;36.10;;;11.15;;
59728;SDS011;45588;51.598;5.618;2023-02-19T03:17:47;36.38;;;11.60;;
59728;SDS011;45588;51.598;5.618;2023-02-19T03:20:23;30.02;;;11.60;;
59728;SDS011;45588;51.598;5.618;2023-02-19T03:22:49;29.70;;;7.32;;
59728;SDS011;45588;51.598;5.618;2023-02-19T03:25:19;21.67;;;5.43;;
59728;SDS011;45588;51.598;5.618;2023-02-19T03:28:06;29.98;;;9.40;;
59728;SDS011;45588;51.598;5.618;2023-02-19T03:30:33;24.95;;;9.27;;
59728;SDS011;45588;51.598;5.618;2023-02-19T03:33:17;23.08;;;5.55;;
59728;SDS011;45588;51.598;5.618;2023-02-19T03:35:46;22.40;;;4.93;;
59728;SDS011;45588;51.598;5.618;2023-02-19T03:38:18;25.90;;;8.50;;
59728;SDS011;45588;51.598;5.618;2023-02-19T03:40:52;27.75;;;6.15;;
59728;SDS011;45588;51.598;5.618;2023-02-19T03:43:19;30.13;;;8.40;;
59728;SDS011;45588;51.598;5.618;2023-02-19T03:50:43;28.38;;;8.60;;
59728;SDS011;45588;51.598;5.618;2023-02-19T03:53:11;18.00;;;4.63;;
59728;SDS011;45588;51.598;5.618;2023-02-19T03:55:52;28.00;;;8.45;;
59728;SDS011;45588;51.598;5.618;2023-02-19T03:58:28;18.92;;;4.78;;
59728;SDS011;45588;51.598;5.618;2023-02-19T04:00:56;26.63;;;9.13;;
59728;SDS011;45588;51.598;5.618;2023-02-19T04:03:24;27.60;;;9.23;;
59728;SDS011;45588;51.598;5.618;2023-02-19T04:05:57;18.67;;;4.80;;
59728;SDS011;45588;51.598;5.618;2023-02-19T04:08:23;25.73;;;9.73;;
59728;SDS011;45588;51.598;5.618;2023-02-19T04:10:49;26.70;;;9.48;;
59728;SDS011;45588;51.598;5.618;2023-02-19T04:13:19;16.67;;;5.45;;
59728;SDS011;45588;51.598;5.618;2023-02-19T04:15:46;20.48;;;4.95;;
59728;SDS011;45588;51.598;5.618;2023-02-19T04:18:20;30.20;;;8.70;;
59728;SDS011;45588;51.598;5.618;2023-02-19T04:20:47;28.27;;;8.43;;
59728;SDS011;45588;51.598;5.618;2023-02-19T04:23:13;23.50;;;4.18;;
59728;SDS011;45588;51.598;5.618;2023-02-19T04:25:40;30.23;;;8.30;;
59728;SDS011;45588;51.598;5.618;2023-02-19T04:28:07;31.98;;;8.50;;
59728;SDS011;45588;51.598;5.618;2023-02-19T04:30:33;28.20;;;7.60;;
59728;SDS011;45588;51.598;5.618;2023-02-19T04:32:58;21.70;;;5.22;;
59728;SDS011;45588;51.598;5.618;2023-02-19T04:35:23;15.67;;;4.30;;
59728;SDS011;45588;51.598;5.618;2023-02-19T04:37:48;22.93;;;7.13;;
59728;SDS011;45588;51.598;5.618;2023-02-19T04:40:13;28.83;;;7.35;;
59728;SDS011;45588;51.598;5.618;2023-02-19T04:42:39;25.48;;;6.93;;
59728;SDS011;45588;51.598;5.618;2023-02-19T04:45:04;17.25;;;3.80;;
59728;SDS011;45588;51.598;5.618;2023-02-19T04:47:32;20.88;;;6.22;;
59728;SDS011;45588;51.598;5.618;2023-02-19T04:49:57;29.58;;;8.20;;
59728;SDS011;45588;51.598;5.618;2023-02-19T04:52:23;32.13;;;8.38;;
59728;SDS011;45588;51.598;5.618;2023-02-19T04:54:48;23.37;;;7.97;;
59728;SDS011;45588;51.598;5.618;2023-02-19T04:57:13;14.57;;;3.50;;
59728;SDS011;45588;51.598;5.618;2023-02-19T04:59:38;28.93;;;8.30;;
59728;SDS011;45588;51.598;5.618;2023-02-19T05:02:03;24.33;;;8.17;;
59728;SDS011;45588;51.598;5.618;2023-02-19T05:04:28;28.25;;;9.52;;
59728;SDS011;45588;51.598;5.618;2023-02-19T05:06:54;22.85;;;8.68;;
59728;SDS011;45588;51.598;5.618;2023-02-19T05:09:19;27.83;;;10.85;;
59728;SDS011;45588;51.598;5.618;2023-02-19T05:11:44;27.30;;;10.32;;
59728;SDS011;45588;51.598;5.618;2023-02-19T05:14:09;19.35;;;6.70;;
59728;SDS011;45588;51.598;5.618;2023-02-19T05:16:34;27.87;;;10.70;;
59728;SDS011;45588;51.598;5.618;2023-02-19T05:19:00;34.77;;;10.63;;
59728;SDS011;45588;51.598;5.618;2023-02-19T05:21:25;16.63;;;5.57;;
59728;SDS011;45588;51.598;5.618;2023-02-19T05:23:50;23.95;;;9.25;;
59728;SDS011;45588;51.598;5.618;2023-02-19T05:26:19;28.33;;;8.88;;
59728;SDS011;45588;51.598;5.618;2023-02-19T05:28:45;17.75;;;4.95;;
59728;SDS011;45588;51.598;5.618;2023-02-19T05:31:11;26.65;;;7.78;;
59728;SDS011;45588;51.598;5.618;2023-02-19T05:33:36;26.27;;;8.43;;
59728;SDS011;45588;51.598;5.618;2023-02-19T05:36:06;19.15;;;4.47;;
59728;SDS011;45588;51.598;5.618;2023-02-19T05:38:32;24.65;;;8.52;;
59728;SDS011;45588;51.598;5.618;2023-02-19T05:41:13;23.83;;;7.95;;
59728;SDS011;45588;51.598;5.618;2023-02-19T05:43:39;15.32;;;4.32;;
59728;SDS011;45588;51.598;5.618;2023-02-19T05:46:05;24.85;;;4.65;;
59728;SDS011;45588;51.598;5.618;2023-02-19T05:48:30;25.80;;;9.32;;
59728;SDS011;45588;51.598;5.618;2023-02-19T05:50:59;27.30;;;9.10;;
59728;SDS011;45588;51.598;5.618;2023-02-19T05:53:25;15.38;;;6.03;;
59728;SDS011;45588;51.598;5.618;2023-02-19T05:55:50;30.10;;;9.32;;
59728;SDS011;45588;51.598;5.618;2023-02-19T05:58:15;26.30;;;9.83;;
59728;SDS011;45588;51.598;5.618;2023-02-19T06:00:40;29.43;;;8.93;;
59728;SDS011;45588;51.598;5.618;2023-02-19T06:03:06;29.98;;;10.20;;
59728;SDS011;45588;51.598;5.618;2023-02-19T06:05:31;24.05;;;11.35;;
59728;SDS011;45588;51.598;5.618;2023-02-19T06:07:56;25.70;;;11.00;;
59728;SDS011;45588;51.598;5.618;2023-02-19T06:10:21;20.85;;;6.97;;
59728;SDS011;45588;51.598;5.618;2023-02-19T06:12:46;28.25;;;11.32;;
59728;SDS011;45588;51.598;5.618;2023-02-19T06:15:11;26.10;;;5.67;;
59728;SDS011;45588;51.598;5.618;2023-02-19T06:17:37;32.47;;;11.70;;
59728;SDS011;45588;51.598;5.618;2023-02-19T06:20:02;28.83;;;11.63;;
59728;SDS011;45588;51.598;5.618;2023-02-19T06:22:27;31.17;;;10.57;;
59728;SDS011;45588;51.598;5.618;2023-02-19T06:24:52;34.80;;;11.95;;
59728;SDS011;45588;51.598;5.618;2023-02-19T06:27:18;34.08;;;10.90;;
59728;SDS011;45588;51.598;5.618;2023-02-19T06:29:43;31.92;;;7.97;;
59728;SDS011;45588;51.598;5.618;2023-02-19T06:32:08;21.58;;;5.28;;
59728;SDS011;45588;51.598;5.618;2023-02-19T06:34:34;20.37;;;6.70;;
59728;SDS011;45588;51.598;5.618;2023-02-19T06:36:59;35.83;;;10.23;;
59728;SDS011;45588;51.598;5.618;2023-02-19T06:39:25;28.98;;;5.70;;
59728;SDS011;45588;51.598;5.618;2023-02-19T06:41:50;32.30;;;11.00;;
59728;SDS011;45588;51.598;5.618;2023-02-19T06:44:18;33.65;;;10.95;;
59728;SDS011;45588;51.598;5.618;2023-02-19T06:46:43;34.63;;;10.87;;
59728;SDS011;45588;51.598;5.618;2023-02-19T06:49:08;18.23;;;6.40;;
59728;SDS011;45588;51.598;5.618;2023-02-19T06:51:34;41.03;;;10.57;;
59728;SDS011;45588;51.598;5.618;2023-02-19T06:53:59;32.83;;;10.80;;
59728;SDS011;45588;51.598;5.618;2023-02-19T06:56:30;35.03;;;11.02;;
59728;SDS011;45588;51.598;5.618;2023-02-19T06:58:56;30.30;;;7.18;;
59728;SDS011;45588;51.598;5.618;2023-02-19T07:01:23;35.72;;;11.05;;
59728;SDS011;45588;51.598;5.618;2023-02-19T07:03:48;18.67;;;6.35;;
59728;SDS011;45588;51.598;5.618;2023-02-19T07:06:14;17.73;;;5.53;;
59728;SDS011;45588;51.598;5.618;2023-02-19T07:08:40;36.65;;;11.80;;
59728;SDS011;45588;51.598;5.618;2023-02-19T07:11:05;29.08;;;10.98;;
59728;SDS011;45588;51.598;5.618;2023-02-19T07:13:30;25.60;;;6.68;;
59728;SDS011;45588;51.598;5.618;2023-02-19T07:15:59;35.70;;;10.80;;
59728;SDS011;45588;51.598;5.618;2023-02-19T07:18:25;27.33;;;10.88;;
59728;SDS011;45588;51.598;5.618;2023-02-19T07:20:50;31.35;;;11.57;;
59728;SDS011;45588;51.598;5.618;2023-02-19T07:23:15;18.10;;;6.80;;
59728;SDS011;45588;51.598;5.618;2023-02-19T07:25:40;29.13;;;11.88;;
59728;SDS011;45588;51.598;5.618;2023-02-19T07:28:06;36.40;;;13.10;;
59728;SDS011;45588;51.598;5.618;2023-02-19T07:30:31;34.55;;;13.25;;
59728;SDS011;45588;51.598;5.618;2023-02-19T07:32:56;23.38;;;6.70;;
59728;SDS011;45588;51.598;5.618;2023-02-19T07:35:21;24.92;;;7.90;;
59728;SDS011;45588;51.598;5.618;2023-02-19T07:37:47;34.72;;;14.10;;
59728;SDS011;45588;51.598;5.618;2023-02-19T07:40:12;29.37;;;8.03;;
59728;SDS011;45588;51.598;5.618;2023-02-19T07:42:37;16.92;;;7.00;;
59728;SDS011;45588;51.598;5.618;2023-02-19T07:45:02;36.17;;;15.55;;
59728;SDS011;45588;51.598;5.618;2023-02-19T07:47:28;30.02;;;15.27;;
59728;SDS011;45588;51.598;5.618;2023-02-19T07:49:53;38.53;;;15.65;;
59728;SDS011;45588;51.598;5.618;2023-02-19T07:52:18;30.08;;;10.15;;
59728;SDS011;45588;51.598;5.618;2023-02-19T07:54:43;32.42;;;16.67;;
59728;SDS011;45588;51.598;5.618;2023-02-19T07:57:08;25.23;;;7.43;;
59728;SDS011;45588;51.598;5.618;2023-02-19T07:59:34;39.42;;;18.80;;
59728;SDS011;45588;51.598;5.618;2023-02-19T08:01:59;32.73;;;16.93;;
59728;SDS011;45588;51.598;5.618;2023-02-19T08:04:42;35.33;;;18.80;;
59728;SDS011;45588;51.598;5.618;2023-02-19T08:07:09;37.95;;;19.10;;
59728;SDS011;45588;51.598;5.618;2023-02-19T08:09:34;29.35;;;18.67;;
59728;SDS011;45588;51.598;5.618;2023-02-19T08:12:00;29.70;;;19.58;;
59728;SDS011;45588;51.598;5.618;2023-02-19T08:14:43;44.75;;;23.08;;
59728;SDS011;45588;51.598;5.618;2023-02-19T08:17:09;24.98;;;9.98;;
59728;SDS011;45588;51.598;5.618;2023-02-19T08:19:34;36.67;;;21.60;;
59728;SDS011;45588;51.598;5.618;2023-02-19T08:21:59;20.97;;;11.43;;
59728;SDS011;45588;51.598;5.618;2023-02-19T08:24:24;25.95;;;11.48;;
59728;SDS011;45588;51.598;5.618;2023-02-19T08:26:49;28.83;;;9.73;;
59728;SDS011;45588;51.598;5.618;2023-02-19T08:29:15;36.15;;;22.00;;
59728;SDS011;45588;51.598;5.618;2023-02-19T08:31:40;39.05;;;23.52;;
59728;SDS011;45588;51.598;5.618;2023-02-19T08:34:05;36.80;;;23.98;;
59728;SDS011;45588;51.598;5.618;2023-02-19T08:36:30;31.05;;;21.70;;
59728;SDS011;45588;51.598;5.618;2023-02-19T08:38:56;32.97;;;22.58;;
59728;SDS011;45588;51.598;5.618;2023-02-19T08:41:21;33.33;;;12.77;;
59728;SDS011;45588;51.598;5.618;2023-02-19T08:43:46;31.15;;;19.13;;
59728;SDS011;45588;51.598;5.618;2023-02-19T08:46:11;31.42;;;19.85;;
59728;SDS011;45588;51.598;5.618;2023-02-19T08:48:37;33.42;;;19.58;;
59728;SDS011;45588;51.598;5.618;2023-02-19T08:51:03;27.20;;;9.90;;
59728;SDS011;45588;51.598;5.618;2023-02-19T08:53:31;21.20;;;10.95;;
59728;SDS011;45588;51.598;5.618;2023-02-19T08:55:56;35.00;;;22.70;;
59728;SDS011;45588;51.598;5.618;2023-02-19T08:58:21;34.42;;;22.00;;
59728;SDS011;45588;51.598;5.618;2023-02-19T09:00:47;31.40;;;13.82;;
59728;SDS011;45588;51.598;5.618;2023-02-19T09:03:12;38.20;;;22.30;;
59728;SDS011;45588;51.598;5.618;2023-02-19T09:05:37;32.78;;;23.05;;
59728;SDS011;45588;51.598;5.618;2023-02-19T09:08:03;38.08;;;23.63;;
59728;SDS011;45588;51.598;5.618;2023-02-19T09:10:28;30.95;;;11.68;;
59728;SDS011;45588;51.598;5.618;2023-02-19T09:12:54;34.75;;;21.20;;
59728;SDS011;45588;51.598;5.618;2023-02-19T09:15:19;27.80;;;20.03;;
59728;SDS011;45588;51.598;5.618;2023-02-19T09:17:44;23.83;;;11.48;;
59728;SDS011;45588;51.598;5.618;2023-02-19T09:20:09;19.13;;;10.05;;
59728;SDS011;45588;51.598;5.618;2023-02-19T09:22:35;30.55;;;17.73;;
59728;SDS011;45588;51.598;5.618;2023-02-19T09:25:00;23.67;;;16.33;;
59728;SDS011;45588;51.598;5.618;2023-02-19T09:27:25;16.05;;;8.20;;
59728;SDS011;45588;51.598;5.618;2023-02-19T09:29:51;15.15;;;8.60;;
59728;SDS011;45588;51.598;5.618;2023-02-19T09:32:17;21.00;;;15.00;;
59728;SDS011;45588;51.598;5.618;2023-02-19T09:34:42;26.10;;;16.77;;
59728;SDS011;45588;51.598;5.618;2023-02-19T09:37:07;26.77;;;16.88;;
59728;SDS011;45588;51.598;5.618;2023-02-19T09:39:33;13.73;;;8.60;;
59728;SDS011;45588;51.598;5.618;2023-02-19T09:42:14;28.73;;;17.05;;
59728;SDS011;45588;51.598;5.618;2023-02-19T09:44:41;16.77;;;9.77;;
59728;SDS011;45588;51.598;5.618;2023-02-19T09:47:11;27.55;;;15.52;;
59728;SDS011;45588;51.598;5.618;2023-02-19T09:49:39;19.40;;;12.93;;
59728;SDS011;45588;51.598;5.618;2023-02-19T09:52:13;15.30;;;7.63;;
59728;SDS011;45588;51.598;5.618;2023-02-19T09:54:39;21.65;;;14.43;;
59728;SDS011;45588;51.598;5.618;2023-02-19T09:57:05;16.60;;;12.30;;
59728;SDS011;45588;51.598;5.618;2023-02-19T09:59:44;14.18;;;7.30;;
59728;SDS011;45588;51.598;5.618;2023-02-19T10:02:11;16.15;;;10.77;;
59728;SDS011;45588;51.598;5.618;2023-02-19T10:04:38;17.10;;;9.20;;
59728;SDS011;45588;51.598;5.618;2023-02-19T10:07:05;11.60;;;8.23;;
59728;SDS011;45588;51.598;5.618;2023-02-19T10:09:34;15.15;;;9.63;;
59728;SDS011;45588;51.598;5.618;2023-02-19T10:12:00;13.90;;;6.10;;
59728;SDS011;45588;51.598;5.618;2023-02-19T10:14:33;15.90;;;10.48;;
59728;SDS011;45588;51.598;5.618;2023-02-19T10:17:00;15.57;;;10.60;;
59728;SDS011;45588;51.598;5.618;2023-02-19T10:19:27;17.83;;;8.45;;
59728;SDS011;45588;51.598;5.618;2023-02-19T10:21:52;25.43;;;10.70;;
59728;SDS011;45588;51.598;5.618;2023-02-19T10:24:22;15.40;;;9.02;;
59728;SDS011;45588;51.598;5.618;2023-02-19T10:26:49;14.20;;;7.90;;
59728;SDS011;45588;51.598;5.618;2023-02-19T10:29:14;16.23;;;9.30;;
59728;SDS011;45588;51.598;5.618;2023-02-19T10:31:40;10.27;;;5.07;;
59728;SDS011;45588;51.598;5.618;2023-02-19T10:34:05;12.82;;;7.38;;
59728;SDS011;45588;51.598;5.618;2023-02-19T10:36:40;18.77;;;6.93;;
59728;SDS011;45588;51.598;5.618;2023-02-19T10:39:25;15.70;;;7.10;;
59728;SDS011;45588;51.598;5.618;2023-02-19T10:41:53;11.48;;;6.68;;
59728;SDS011;45588;51.598;5.618;2023-02-19T10:44:23;13.10;;;7.38;;
59728;SDS011;45588;51.598;5.618;2023-02-19T10:46:51;19.77;;;8.63;;
59728;SDS011;45588;51.598;5.618;2023-02-19T10:49:21;19.98;;;8.43;;
59728;SDS011;45588;51.598;5.618;2023-02-19T10:51:48;18.13;;;8.85;;
59728;SDS011;45588;51.598;5.618;2023-02-19T10:54:18;17.75;;;8.95;;
59728;SDS011;45588;51.598;5.618;2023-02-19T10:56:44;12.18;;;5.10;;
59728;SDS011;45588;51.598;5.618;2023-02-19T10:59:13;13.38;;;6.78;;
59728;SDS011;45588;51.598;5.618;2023-02-19T11:01:51;17.17;;;7.90;;
59728;SDS011;45588;51.598;5.618;2023-02-19T11:04:17;14.15;;;7.53;;
59728;SDS011;45588;51.598;5.618;2023-02-19T11:06:43;14.30;;;6.95;;
59728;SDS011;45588;51.598;5.618;2023-02-19T11:09:21;15.90;;;7.65;;
59728;SDS011;45588;51.598;5.618;2023-02-19T11:11:49;14.48;;;6.88;;
59728;SDS011;45588;51.598;5.618;2023-02-19T11:14:17;14.68;;;7.55;;
59728;SDS011;45588;51.598;5.618;2023-02-19T11:16:46;14.52;;;7.22;;
59728;SDS011;45588;51.598;5.618;2023-02-19T11:19:22;16.58;;;8.30;;
59728;SDS011;45588;51.598;5.618;2023-02-19T11:21:48;15.40;;;7.53;;
59728;SDS011;45588;51.598;5.618;2023-02-19T11:24:21;15.80;;;7.70;;
59728;SDS011;45588;51.598;5.618;2023-02-19T11:26:48;18.73;;;8.70;;
59728;SDS011;45588;51.598;5.618;2023-02-19T11:29:16;15.13;;;7.95;;
59728;SDS011;45588;51.598;5.618;2023-02-19T11:31:43;12.82;;;6.22;;
59728;SDS011;45588;51.598;5.618;2023-02-19T11:36:38;18.75;;;10.00;;
59728;SDS011;45588;51.598;5.618;2023-02-19T11:49:24;20.38;;;11.63;;
59728;SDS011;45588;51.598;5.618;2023-02-19T11:52:07;11.15;;;6.47;;
59728;SDS011;45588;51.598;5.618;2023-02-19T11:54:49;13.25;;;11.77;;
59728;SDS011;45588;51.598;5.618;2023-02-19T11:59:47;13.88;;;12.25;;
59728;SDS011;45588;51.598;5.618;2023-02-19T12:02:41;15.63;;;12.35;;
59728;SDS011;45588;51.598;5.618;2023-02-19T12:07:57;12.55;;;6.10;;
59728;SDS011;45588;51.598;5.618;2023-02-19T12:12:58;15.88;;;8.32;;
59728;SDS011;45588;51.598;5.618;2023-02-19T12:20:58;15.90;;;8.73;;
59728;SDS011;45588;51.598;5.618;2023-02-19T12:25:54;10.52;;;8.40;;
59728;SDS011;45588;51.598;5.618;2023-02-19T12:31:13;14.68;;;8.88;;
59728;SDS011;45588;51.598;5.618;2023-02-19T12:36:10;9.57;;;8.38;;
59728;SDS011;45588;51.598;5.618;2023-02-19T12:38:41;8.07;;;5.32;;
59728;SDS011;45588;51.598;5.618;2023-02-19T12:43:37;12.68;;;10.02;;
59728;SDS011;45588;51.598;5.618;2023-02-19T12:46:08;14.85;;;13.25;;
59728;SDS011;45588;51.598;5.618;2023-02-19T12:51:12;15.18;;;10.27;;
59728;SDS011;45588;51.598;5.618;2023-02-19T12:53:41;20.02;;;13.43;;
59728;SDS011;45588;51.598;5.618;2023-02-19T12:56:13;20.80;;;12.98;;
59728;SDS011;45588;51.598;5.618;2023-02-19T12:58:45;14.30;;;9.85;;
59728;SDS011;45588;51.598;5.618;2023-02-19T13:01:14;12.30;;;9.45;;
59728;SDS011;45588;51.598;5.618;2023-02-19T13:03:42;15.75;;;6.32;;
59728;SDS011;45588;51.598;5.618;2023-02-19T13:06:20;10.80;;;6.88;;
59728;SDS011;45588;51.598;5.618;2023-02-19T13:08:53;7.80;;;4.72;;
59728;SDS011;45588;51.598;5.618;2023-02-19T13:11:22;4.45;;;3.63;;
59728;SDS011;45588;51.598;5.618;2023-02-19T13:13:56;5.55;;;3.38;;
59728;SDS011;45588;51.598;5.618;2023-02-19T13:16:23;4.65;;;2.45;;
59728;SDS011;45588;51.598;5.618;2023-02-19T13:18:57;3.75;;;2.40;;
59728;SDS011;45588;51.598;5.618;2023-02-19T13:21:23;5.97;;;2.40;;
59728;SDS011;45588;51.598;5.618;2023-02-19T13:24:10;4.00;;;2.65;;
59728;SDS011;45588;51.598;5.618;2023-02-19T13:26:50;4.35;;;2.55;;
59728;SDS011;45588;51.598;5.618;2023-02-19T13:34:59;6.28;;;2.83;;
59728;SDS011;45588;51.598;5.618;2023-02-19T13:37:26;2.97;;;1.80;;
59728;SDS011;45588;51.598;5.618;2023-02-19T13:39:55;5.25;;;3.03;;
59728;SDS011;45588;51.598;5.618;2023-02-19T13:42:29;6.55;;;2.67;;
59728;SDS011;45588;51.598;5.618;2023-02-19T13:44:55;6.75;;;3.10;;
59728;SDS011;45588;51.598;5.618;2023-02-19T13:50:05;5.13;;;3.05;;
59728;SDS011;45588;51.598;5.618;2023-02-19T13:52:37;5.75;;;3.75;;
59728;SDS011;45588;51.598;5.618;2023-02-19T13:57:47;7.68;;;3.05;;
59728;SDS011;45588;51.598;5.618;2023-02-19T14:11:07;11.15;;;4.70;;
59728;SDS011;45588;51.598;5.618;2023-02-19T14:16:29;4.70;;;2.60;;
59728;SDS011;45588;51.598;5.618;2023-02-19T14:18:54;5.63;;;3.15;;
59728;SDS011;45588;51.598;5.618;2023-02-19T14:21:36;6.90;;;2.47;;
59728;SDS011;45588;51.598;5.618;2023-02-19T14:24:01;5.72;;;2.88;;
59728;SDS011;45588;51.598;5.618;2023-02-19T14:26:28;9.30;;;5.32;;
59728;SDS011;45588;51.598;5.618;2023-02-19T14:28:54;9.32;;;5.07;;
59728;SDS011;45588;51.598;5.618;2023-02-19T14:31:22;9.23;;;5.53;;
59728;SDS011;45588;51.598;5.618;2023-02-19T14:33:49;8.35;;;5.90;;
59728;SDS011;45588;51.598;5.618;2023-02-19T14:41:20;12.85;;;7.28;;
59728;SDS011;45588;51.598;5.618;2023-02-19T14:43:49;12.43;;;8.02;;
59728;SDS011;45588;51.598;5.618;2023-02-19T14:46:23;13.52;;;9.35;;
59728;SDS011;45588;51.598;5.618;2023-02-19T14:48:50;20.85;;;10.52;;
59728;SDS011;45588;51.598;5.618;2023-02-19T14:56:19;16.35;;;7.93;;
59728;SDS011;45588;51.598;5.618;2023-02-19T14:58:45;14.30;;;6.22;;
59728;SDS011;45588;51.598;5.618;2023-02-19T15:01:26;13.30;;;5.87;;
59728;SDS011;45588;51.598;5.618;2023-02-19T15:03:52;15.55;;;11.00;;
59728;SDS011;45588;51.598;5.618;2023-02-19T15:06:18;16.10;;;11.68;;
59728;SDS011;45588;51.598;5.618;2023-02-19T15:08:45;14.75;;;10.85;;
59728;SDS011;45588;51.598;5.618;2023-02-19T15:11:11;16.30;;;5.75;;
59728;SDS011;45588;51.598;5.618;2023-02-19T15:13:39;12.95;;;9.43;;
59728;SDS011;45588;51.598;5.618;2023-02-19T15:16:09;12.32;;;5.53;;
59728;SDS011;45588;51.598;5.618;2023-02-19T15:18:34;17.95;;;10.93;;
59728;SDS011;45588;51.598;5.618;2023-02-19T15:21:02;15.02;;;6.00;;
59728;SDS011;45588;51.598;5.618;2023-02-19T15:23:28;16.25;;;6.22;;
59728;SDS011;45588;51.598;5.618;2023-02-19T15:25:54;15.82;;;10.20;;
59728;SDS011;45588;51.598;5.618;2023-02-19T15:30:45;14.98;;;9.25;;
59728;SDS011;45588;51.598;5.618;2023-02-19T15:33:14;14.95;;;8.95;;
59728;SDS011;45588;51.598;5.618;2023-02-19T15:35:40;11.55;;;8.18;;
59728;SDS011;45588;51.598;5.618;2023-02-19T15:38:07;11.68;;;8.70;;
59728;SDS011;45588;51.598;5.618;2023-02-19T15:40:35;12.73;;;8.80;;
59728;SDS011;45588;51.598;5.618;2023-02-19T15:43:01;9.18;;;5.85;;
59728;SDS011;45588;51.598;5.618;2023-02-19T15:47:55;9.40;;;5.72;;
59728;SDS011;45588;51.598;5.618;2023-02-19T15:50:35;10.98;;;5.70;;
59728;SDS011;45588;51.598;5.618;2023-02-19T15:53:07;14.60;;;9.43;;
59728;SDS011;45588;51.598;5.618;2023-02-19T15:55:44;14.10;;;10.07;;
59728;SDS011;45588;51.598;5.618;2023-02-19T16:00:39;11.20;;;5.43;;
59728;SDS011;45588;51.598;5.618;2023-02-19T16:03:07;9.68;;;4.80;;
59728;SDS011;45588;51.598;5.618;2023-02-19T16:05:37;13.90;;;6.10;;
59728;SDS011;45588;51.598;5.618;2023-02-19T16:08:15;11.40;;;5.57;;
59728;SDS011;45588;51.598;5.618;2023-02-19T16:10:50;9.15;;;6.00;;
59728;SDS011;45588;51.598;5.618;2023-02-19T16:13:21;7.15;;;4.30;;
59728;SDS011;45588;51.598;5.618;2023-02-19T16:15:51;14.57;;;7.55;;
59728;SDS011;45588;51.598;5.618;2023-02-19T16:18:19;9.93;;;7.72;;